Stockton Metropolitan Airport Stockton US
ICAO: KSCK
IATA: SCK
Category: Medium
Scheduled Services: No

Elevation: 33 ft
TransAlt. 18000 ft.

Airport Communications:
NORCAL APP:123.85
ATIS:118.25
CTAF:120.3
NORCAL DEP:125.1
GND:121.9
ARNG OPS:49
RANCHO RDO:122.65
TWR:120.3
UNICOM:122.95

KSCK Zoom In..

If you have problems with the map follow the link
https://www.worldairports.se/pages/airport.php?
ICAO=KSCK

Runways:

(A) RW 11L length 10650 ft width 150 ft
---- / hdg 114

(B) RW 11R length 4448 ft width 75 ft
---- / hdg 114

(C) RW 29L length 4448 ft width 75 ft
---- / hdg 294

(D) RW 29R length 10650 ft width 150 ft
ILS 109.10 / hdg 294

Location; KSCK
Day. 27 / Time. 05.55 Zulu
* Altimeter: 30.28
* Temperature: 11° c. 51.8°f.
* Wind from: 260° Speed 07 kn.
Dewpoint: 08° c.
Visibility: 10 Statute Miles.
Clouds: Clear (automated report).

KSCK 270555Z AUTO 26007KT 10SM CLR 11/08 A3028 RMK AO2 SLP254 T01060083 10178 20106 52012


Wind From 260°
Speed 07 kn.

 
 
jpsmedia worldairports.se 2020   terms of use